Terminal Aerodrome Forecast
Issued by NWS Chicago, IL

Home | Current Version | Previous Version | Text Only | Print | Product List | Glossary On
Versions: 1 2 3 4 5 6 7 8 9 10 11 12 13 14 15 16 17 18 19 20 21 22 23 24 25
000
FTUS43 KLOT 181735
TAFRFD
TAF
KRFD 181735Z 1818/1918 17017G26KT P6SM BKN250
      TEMPO 1818/1819 3SM BR BKN006
     FM190000 17014G22KT P6SM BKN250 WS020/22055KT
     FM190800 18012KT P6SM VCSH SCT010 OVC013
     FM191500 16007KT 1SM -SHRA BR SCT002 OVC005=

USA.gov is the U.S. government's official web portal to all federal, state and local government web resources and services.